Time;durP1;ratioP1;P1;durP2;ratioP2;P2;SDS_P1;SDS_P2;PMS_P1;PMS_P2;Temp;Humidity;BMP_temperature;BMP_pressure;BME280_temperature;BME280_humidity;BME280_pressure;Samples;Min_cycle;Max_cycle;Signal;HPM_P1;HPM_P2
2021/12/16 00:02:49;;;;;;;24.50;11.18;;;11.40;99.90;;;11.67;87.30;103332.25;4993765;28;20089;-79
2021/12/16 00:05:36;;;;;;;24.88;10.90;;;11.40;99.90;;;11.69;87.42;103299.59;4976531;28;20057;-78
2021/12/16 00:08:14;;;;;;;28.10;11.57;;;11.40;99.90;;;11.72;87.36;103304.09;4993597;28;20484;-80
2021/12/16 00:10:51;;;;;;;28.38;11.55;;;11.40;99.90;;;11.65;87.49;103303.00;4992589;28;20508;-79
2021/12/16 00:30:27;;;;;;;29.58;12.15;;;11.40;99.90;;;11.04;87.20;103254.22;4993628;28;20038;-79
2021/12/16 00:33:12;;;;;;;26.45;12.55;;;11.50;99.90;;;11.67;87.37;103287.19;4993548;28;20050;-80
2021/12/16 00:35:46;;;;;;;24.08;12.85;;;11.50;99.90;;;11.69;87.41;103289.00;4976089;28;20053;-79
2021/12/16 00:38:16;;;;;;;31.17;12.75;;;11.40;99.90;;;11.67;87.31;103288.03;4993183;28;20092;-79
2021/12/16 00:40:45;;;;;;;;;;;11.40;99.90;;;11.66;87.09;103288.91;4993949;28;20064;-78
2021/12/16 00:43:22;;;;;;;33.25;13.13;;;11.50;99.90;;;11.77;87.12;103308.69;4975949;28;20024;-79
2021/12/16 00:46:10;;;;;;;26.98;11.77;;;11.50;99.90;;;11.47;86.97;103253.81;4975977;28;20050;-78
2021/12/16 00:49:04;;;;;;;30.15;13.10;;;11.50;99.90;;;11.66;87.18;103280.97;4993502;28;20053;-79
2021/12/16 00:54:21;;;;;;;26.40;12.48;;;11.60;99.90;;;11.84;87.28;103304.47;4975986;28;20057;-79
2021/12/16 00:56:56;;;;;;;23.70;12.10;;;11.60;99.90;;;11.78;87.35;103299.91;4977349;28;20085;-79
2021/12/16 00:59:31;;;;;;;29.77;13.55;;;11.60;99.90;;;11.90;87.28;103314.34;4979487;28;20049;-79
2021/12/16 01:02:12;;;;;;;25.60;12.77;;;11.60;99.90;;;11.85;87.26;103306.25;4979756;28;20057;-79
2021/12/16 01:36:37;;;;;;;32.97;13.45;;;11.80;99.90;;;11.89;86.80;103320.50;4978905;28;20050;-80
2021/12/16 01:39:53;;;;;;;31.65;14.02;;;11.80;99.90;;;12.03;86.88;103354.56;4994938;28;20050;-79
2021/12/16 01:42:38;;;;;;;26.23;14.18;;;11.80;99.90;;;12.00;86.98;103348.25;4995112;28;20070;-79
2021/12/16 01:50:54;;;;;;;32.38;14.20;;;11.70;99.90;;;11.96;87.33;103351.69;4972762;28;20050;-75
2021/12/16 01:53:49;;;;;;;29.45;15.02;;;11.70;99.90;;;11.84;87.18;103330.09;4979095;28;20054;-75
2021/12/16 01:56:28;;;;;;;36.40;14.55;;;11.70;99.90;;;12.00;87.19;103364.19;4978973;28;20054;-75
2021/12/16 01:59:01;;;;;;;33.03;14.18;;;11.70;99.90;;;11.93;87.43;103346.25;4978872;28;20078;-75
2021/12/16 02:01:34;;;;;;;25.55;13.70;;;11.70;99.90;;;12.00;87.22;103364.19;4978916;28;20129;-75
2021/12/16 02:04:14;;;;;;;27.35;14.07;;;11.70;99.90;;;11.95;87.27;103365.78;4978842;28;20054;-75
2021/12/16 02:07:01;;;;;;;23.15;13.63;;;11.70;99.90;;;11.95;87.33;103379.03;4978843;28;20527;-75
2021/12/16 02:09:35;;;;;;;24.65;13.80;;;11.70;99.90;;;11.95;87.57;103368.44;4977857;28;20058;-75
2021/12/16 02:12:15;;;;;;;24.75;13.10;;;11.70;99.90;;;11.99;87.20;103375.63;4978698;28;20108;-75
2021/12/16 02:28:56;;;;;;;28.60;13.82;;;11.80;99.90;;;11.91;87.55;103379.78;4994439;28;20097;-75
2021/12/16 02:31:45;;;;;;;26.42;13.80;;;11.80;99.90;;;12.07;87.40;103400.63;4995709;28;20046;-75
2021/12/16 02:34:29;;;;;;;28.38;13.90;;;11.80;99.90;;;12.12;87.58;103391.97;4995719;28;20128;-75
2021/12/16 02:37:02;;;;;;;25.52;14.18;;;11.80;99.90;;;12.09;87.22;103380.38;4978005;28;20045;-75
2021/12/16 02:39:34;;;;;;;30.95;14.57;;;11.80;99.90;;;12.01;87.04;103363.31;4995638;28;20057;-75
2021/12/16 02:42:13;;;;;;;32.00;14.38;;;11.90;99.90;;;12.18;87.06;103393.88;4994611;28;20065;-75
2021/12/16 02:48:28;;;;;;;30.55;14.30;;;11.90;99.90;;;12.19;87.01;103401.00;4978156;28;20051;-76
2021/12/16 02:50:29;;;;;;;24.45;13.55;;;11.90;99.90;;;12.24;87.04;103405.59;4994200;28;20128;-75
2021/12/16 02:52:58;;;;;;;23.33;12.63;;;12.00;99.90;;;12.27;87.04;103400.38;4994066;28;20042;-76
2021/12/16 02:55:27;;;;;;;32.23;13.63;;;12.00;99.90;;;12.29;86.68;103401.31;4994095;28;20093;-75
2021/12/16 02:58:00;;;;;;;31.13;14.25;;;12.00;99.90;;;12.28;87.01;103395.97;4977707;28;20435;-75
2021/12/16 03:00:35;;;;;;;31.15;14.82;;;12.00;99.90;;;12.31;86.98;103396.94;4994011;28;20141;-75
2021/12/16 03:03:04;;;;;;;27.60;13.82;;;12.00;99.90;;;12.33;86.71;103397.00;4978064;28;20046;-75
2021/12/16 03:05:33;;;;;;;21.63;12.55;;;12.00;99.90;;;12.36;86.68;103400.66;4995193;28;20092;-76
2021/12/16 03:08:05;;;;;;;27.95;13.75;;;12.10;99.90;;;12.35;86.74;103398.84;4995084;28;20042;-76
2021/12/16 03:11:02;;;;;;;27.85;13.80;;;12.10;99.90;;;12.34;86.54;103397.06;4977638;28;20069;-75
2021/12/16 03:13:34;;;;;;;26.58;13.15;;;12.10;99.90;;;12.34;86.39;103398.81;4977655;28;20050;-75
2021/12/16 03:16:15;;;;;;;21.13;12.20;;;12.10;99.90;;;12.31;86.55;103388.09;4994764;28;20038;-76
2021/12/16 03:18:49;;;;;;;23.80;12.25;;;12.10;99.90;;;12.30;86.73;103386.28;4993609;28;20064;-75
2021/12/16 03:21:26;;;;;;;21.38;12.95;;;12.10;99.90;;;12.32;86.74;103385.50;4994563;28;20536;-75
2021/12/16 03:24:14;;;;;;;28.90;13.35;;;12.10;99.90;;;12.39;86.64;103395.41;4993546;28;20500;-75
2021/12/16 03:32:57;;;;;;;24.20;12.40;;;12.10;99.90;;;12.42;86.58;103398.19;4994680;28;20057;-75
2021/12/16 03:35:31;;;;;;;25.38;12.70;;;12.10;99.90;;;12.44;86.82;103395.56;4977207;28;20463;-75
2021/12/16 03:38:05;;;;;;;22.55;12.57;;;12.20;99.90;;;12.32;86.46;103384.59;4994211;28;20488;-75
2021/12/16 03:40:39;;;;;;;19.52;11.10;;;12.20;99.90;;;12.06;86.44;103356.41;4994641;28;20050;-75
2021/12/16 03:43:13;;;;;;;17.92;11.15;;;12.10;99.90;;;12.29;86.41;103397.78;4977113;28;20412;-75
2021/12/16 03:48:43;;;;;;;24.30;12.45;;;12.10;99.90;;;12.38;86.70;103406.91;4994416;28;20134;-75
2021/12/16 03:51:17;;;;;;;22.67;12.60;;;12.10;99.90;;;12.35;86.48;103392.66;4994444;28;20054;-75
2021/12/16 03:53:49;;;;;;;22.27;12.93;;;12.10;99.90;;;12.37;86.75;103399.78;4993116;28;20051;-75
2021/12/16 03:56:25;;;;;;;22.40;12.65;;;12.10;99.90;;;12.41;86.85;103408.72;4976816;28;20069;-75
2021/12/16 03:59:05;;;;;;;19.75;12.20;;;12.10;99.90;;;12.42;86.72;103399.94;4976772;28;20136;-75
2021/12/16 04:01:45;;;;;;;20.50;12.57;;;12.20;99.90;;;12.37;86.93;103389.16;4993220;28;20050;-75
2021/12/16 04:04:19;;;;;;;21.00;12.45;;;12.20;99.90;;;12.40;86.56;103388.34;4976726;28;20042;-75
2021/12/16 04:06:49;;;;;;;18.15;11.50;;;12.20;99.90;;;12.42;86.82;103386.66;4976597;28;20137;-76
2021/12/16 04:09:19;;;;;;;20.02;12.30;;;12.10;99.90;;;12.44;86.73;103401.78;4976626;28;20053;-75
2021/12/16 04:12:11;;;;;;;22.63;12.43;;;12.20;99.90;;;12.47;86.80;103403.59;4976642;28;20046;-75
2021/12/16 04:14:42;;;;;;;22.02;11.88;;;12.20;99.90;;;12.47;86.87;103406.25;4992479;28;20054;-75
2021/12/16 04:17:15;;;;;;;20.85;12.27;;;12.20;99.90;;;12.48;86.55;103401.00;4994055;28;20130;-75
2021/12/16 04:19:54;;;;;;;18.65;12.43;;;12.20;99.90;;;12.41;86.63;103393.72;4976589;28;20069;-75
2021/12/16 04:22:29;;;;;;;20.23;13.23;;;12.10;99.90;;;12.43;86.67;103413.22;4976697;28;20430;-75
2021/12/16 04:25:06;;;;;;;24.20;12.98;;;12.10;99.90;;;12.48;86.73;103416.03;4976883;28;20296;-76
2021/12/16 04:27:39;;;;;;;22.85;13.35;;;12.20;99.90;;;12.43;86.72;103404.34;4994044;28;20054;-75
2021/12/16 04:30:10;;;;;;;22.15;12.93;;;12.20;99.90;;;12.40;86.76;103412.25;4976733;28;20088;-75
2021/12/16 04:32:42;;;;;;;22.08;12.23;;;12.20;99.90;;;12.42;86.94;103410.53;4976928;28;20054;-75
2021/12/16 04:35:11;;;;;;;23.58;13.18;;;12.20;99.90;;;12.45;86.69;103414.19;4977081;28;20136;-75
2021/12/16 04:37:42;;;;;;;;;;;12.20;99.90;;;10.71;86.62;103099.59;4977142;28;20048;-76
2021/12/16 04:40:18;;;;;;;24.27;12.63;;;12.30;99.90;;;12.36;86.65;103398.00;4976579;28;20020;-76
2021/12/16 04:42:58;;;;;;;24.98;13.75;;;12.30;99.90;;;12.49;86.66;103410.75;4976959;28;20142;-76
2021/12/16 04:45:30;;;;;;;24.42;14.43;;;12.20;99.90;;;12.43;86.70;103399.06;4976317;28;20042;-75
2021/12/16 04:48:00;;;;;;;21.73;14.18;;;12.20;99.90;;;12.40;86.66;103404.28;4976416;28;20046;-76
2021/12/16 04:50:33;;;;;;;27.45;14.15;;;12.20;99.90;;;12.51;86.71;103409.06;4992490;28;20057;-76
2021/12/16 04:53:02;;;;;;;23.42;13.63;;;12.20;99.90;;;10.56;86.44;103070.03;4976200;28;20038;-76
2021/12/16 04:55:34;;;;;;;27.90;13.75;;;12.20;99.90;;;12.50;86.65;103412.53;4992429;28;20050;-76
2021/12/16 04:58:04;;;;;;;25.67;13.57;;;12.20;99.90;;;12.50;86.72;103414.31;4976253;28;20057;-76
2021/12/16 05:00:33;;;;;;;24.88;14.25;;;12.20;99.90;;;12.31;86.56;103388.97;4993623;28;20117;-76
2021/12/16 05:03:27;;;;;;;25.42;14.13;;;12.20;99.90;;;12.47;86.53;103416.88;4976042;28;20053;-76
2021/12/16 05:05:56;;;;;;;20.67;13.10;;;12.20;99.90;;;12.44;86.53;103415.06;4976191;28;20073;-76
2021/12/16 05:08:25;;;;;;;20.83;13.45;;;12.20;99.90;;;12.44;86.74;103419.44;4976040;28;20396;-76
2021/12/16 05:11:04;;;;;;;27.20;13.10;;;12.20;99.90;;;12.45;86.53;103413.28;4976058;28;20105;-76
2021/12/16 05:13:40;;;;;;;22.45;13.07;;;12.20;99.90;;;12.44;86.52;103412.41;4976069;28;20043;-76
2021/12/16 05:16:11;;;;;;;22.40;13.40;;;12.20;99.90;;;12.45;86.50;103416.84;4976030;28;20046;-76
2021/12/16 05:18:44;;;;;;;22.20;13.02;;;12.20;99.90;;;12.38;86.50;103422.84;4975709;28;20073;-76
2021/12/16 05:21:40;;;;;;;23.08;13.77;;;12.10;99.90;;;12.42;86.63;103437.09;4975811;28;20516;-76
2021/12/16 05:24:25;;;;;;;21.80;14.25;;;12.20;99.90;;;12.41;86.66;103432.63;4975913;28;20431;-76
2021/12/16 05:27:14;;;;;;;22.20;13.77;;;12.20;99.90;;;12.43;86.92;103422.94;4992701;28;20107;-75
2021/12/16 05:29:45;;;;;;;22.20;13.25;;;12.20;99.90;;;12.45;86.69;103435.41;4975874;28;20062;-76
2021/12/16 05:32:17;;;;;;;21.40;12.88;;;12.10;99.90;;;12.45;86.43;103437.16;4975870;28;20133;-75
2021/12/16 05:34:46;;;;;;;20.73;12.98;;;12.10;99.90;;;12.43;86.65;103437.13;4993603;28;20470;-76
2021/12/16 05:37:14;;;;;;;19.08;13.60;;;12.20;99.90;;;12.46;86.35;103452.25;4975823;28;20423;-75
2021/12/16 05:39:45;;;;;;;24.75;14.38;;;12.20;99.90;;;12.46;86.49;103461.13;4975741;28;20065;-76
2021/12/16 05:42:37;;;;;;;22.15;13.98;;;12.20;99.90;;;12.44;86.28;103449.56;4989963;28;20058;-76
2021/12/16 05:45:10;;;;;;;21.13;13.60;;;12.20;99.90;;;12.42;86.52;103451.28;4978665;28;20492;-76
2021/12/16 05:47:39;;;;;;;19.75;13.18;;;12.20;99.90;;;12.46;86.31;103452.25;4979201;28;20416;-76
2021/12/16 05:50:10;;;;;;;22.80;13.70;;;12.10;99.90;;;12.40;86.22;103452.97;4979059;28;20385;-76
2021/12/16 05:52:39;;;;;;;22.13;13.55;;;12.20;99.90;;;12.38;86.30;103452.03;4996660;28;20038;-76
2021/12/16 05:55:09;;;;;;;22.98;14.27;;;12.10;99.90;;;12.41;86.17;103457.41;4978974;28;20093;-76
2021/12/16 05:57:53;;;;;;;26.90;14.40;;;12.20;99.90;;;12.45;86.11;103451.34;4979063;28;20054;-76
2021/12/16 06:00:29;;;;;;;21.05;13.35;;;12.20;99.90;;;11.99;85.97;103372.97;4978795;28;20419;-76
2021/12/16 06:03:00;;;;;;;18.98;13.70;;;12.20;99.90;;;12.35;85.92;103459.00;4979050;28;20452;-75
2021/12/16 06:05:29;;;;;;;21.50;12.85;;;12.20;99.90;;;12.39;85.75;103469.75;4978523;28;20046;-75
2021/12/16 06:07:59;;;;;;;18.58;12.30;;;12.10;99.90;;;12.37;85.58;103465.22;4978727;28;20057;-76
2021/12/16 06:13:14;;;;;;;18.15;13.00;;;12.10;99.90;;;12.34;84.96;103462.50;4995983;28;20570;-75
2021/12/16 06:16:00;;;;;;;24.40;13.95;;;12.10;99.90;;;12.31;85.25;103510.19;4995867;28;20073;-76
2021/12/16 06:27:06;;;;;;;19.35;13.50;;;12.00;99.90;;;12.11;85.03;103452.94;4978228;28;20054;-76
2021/12/16 06:29:36;;;;;;;19.40;13.57;;;12.00;99.90;;;12.21;85.23;103484.22;4995639;28;20050;-76
2021/12/16 06:32:06;;;;;;;23.70;13.98;;;12.00;99.90;;;12.09;85.50;103474.13;4995524;28;20043;-76
2021/12/16 06:34:35;;;;;;;23.20;14.88;;;11.90;99.90;;;11.34;85.85;103349.69;4996068;28;20049;-76
2021/12/16 06:37:06;;;;;;;19.13;13.55;;;11.80;99.90;;;12.11;85.95;103485.69;4995447;28;20081;-76
2021/12/16 06:39:34;;;;;;;23.00;13.95;;;11.80;99.90;;;12.11;86.07;103487.44;4978173;28;20050;-76
2021/12/16 06:42:25;;;;;;;25.50;16.15;;;11.90;99.90;;;12.09;86.07;103494.44;4978248;28;20047;-76
2021/12/16 06:45:02;;;;;;;23.50;14.68;;;11.80;99.90;;;12.05;86.01;103482.84;4978101;28;20511;-76
2021/12/16 06:47:39;;;;;;;24.75;15.13;;;11.80;99.90;;;11.37;86.10;103377.19;4995291;28;20038;-76
2021/12/16 06:50:09;;;;;;;21.58;14.40;;;11.80;99.90;;;11.84;86.13;103468.00;4995233;28;20058;-76
2021/12/16 06:52:44;;;;;;;26.55;15.35;;;11.80;99.90;;;12.10;86.07;103502.44;4977960;28;20050;-76
2021/12/16 06:55:20;;;;;;;24.50;15.63;;;11.80;99.90;;;12.04;86.13;103488.97;4994734;28;20039;-76
2021/12/16 06:57:53;;;;;;;23.88;15.95;;;11.80;99.90;;;12.00;86.33;103486.22;4995342;28;20050;-76
2021/12/16 07:00:33;;;;;;;23.77;15.13;;;11.80;99.90;;;12.04;86.18;103514.66;4995029;28;20034;-76
2021/12/16 07:03:06;;;;;;;23.77;15.60;;;11.80;99.90;;;12.02;86.06;103508.38;4977941;28;20061;-76
2021/12/16 07:05:39;;;;;;;22.30;15.50;;;11.80;99.90;;;11.84;85.86;103473.31;4977620;28;20042;-76
2021/12/16 07:08:18;;;;;;;23.58;14.45;;;11.80;99.90;;;12.01;86.03;103514.53;4994816;28;20090;-73
2021/12/16 07:10:47;;;;;;;21.80;14.90;;;11.70;99.90;;;11.97;85.90;103529.44;4977512;28;20050;-77
2021/12/16 07:13:29;;;;;;;23.63;14.33;;;11.70;99.90;;;11.90;85.88;103531.84;4994733;28;20050;-78
2021/12/16 07:15:59;;;;;;;17.75;13.38;;;11.70;99.90;;;11.76;85.87;103502.22;4994682;28;20447;-77
2021/12/16 07:18:29;;;;;;;18.98;13.07;;;11.70;99.90;;;11.95;85.62;103538.19;4994823;28;20042;-70
2021/12/16 07:20:58;;;;;;;21.52;13.75;;;11.70;99.90;;;11.98;85.35;103533.88;4977394;28;20054;-71
2021/12/16 07:23:27;;;;;;;21.13;14.70;;;11.70;99.90;;;11.95;85.58;103548.81;4994471;28;20133;-71
2021/12/16 07:25:58;;;;;;;22.23;15.05;;;11.70;99.90;;;11.91;85.66;103546.91;4994418;28;20105;-71
2021/12/16 07:28:27;;;;;;;23.60;13.77;;;11.60;99.90;;;11.81;85.65;103536.88;4994178;28;20058;-70
2021/12/16 07:30:57;;;;;;;23.83;14.13;;;11.70;99.90;;;11.94;85.23;103549.69;4994767;28;20456;-71
2021/12/16 07:33:26;;;;;;;19.90;13.57;;;11.70;99.90;;;11.84;85.66;103534.31;4994392;28;20133;-70
2021/12/16 07:35:59;;;;;;;22.08;15.35;;;11.80;99.90;;;11.97;85.92;103565.69;4994437;28;20042;-71
2021/12/16 07:38:27;;;;;;;20.52;14.02;;;11.70;99.90;;;11.97;85.98;103573.63;4977038;28;20100;-71
2021/12/16 07:40:57;;;;;;;15.85;12.85;;;11.70;99.90;;;11.92;86.00;103573.50;4994380;28;20042;-69
2021/12/16 07:43:41;;;;;;;24.98;15.07;;;11.70;99.90;;;11.90;86.08;103564.59;4994239;28;20042;-71
2021/12/16 07:46:12;;;;;;;23.17;15.35;;;11.70;99.90;;;11.79;86.25;103548.31;4994081;28;20046;-68
2021/12/16 07:48:41;;;;;;;25.02;15.23;;;11.70;99.90;;;11.90;85.93;103579.59;4994345;28;20042;-69
2021/12/16 07:51:10;;;;;;;12.30;10.15;;;11.70;99.90;;;11.71;85.58;103563.06;4994007;28;20057;-67
2021/12/16 07:53:44;;;;;;;11.93;10.27;;;11.60;99.90;;;11.79;84.91;103590.75;4993875;28;20061;-69
2021/12/16 07:56:12;;;;;;;13.27;11.05;;;11.60;99.90;;;11.83;84.66;103598.81;4993854;28;20097;-70
2021/12/16 07:58:41;;;;;;;23.95;13.95;;;11.50;99.90;;;11.85;85.11;103599.75;4993868;28;20104;-70
2021/12/16 08:01:09;;;;;;;17.85;11.50;;;11.50;99.90;;;11.05;85.07;103474.97;4993723;28;20080;-70
2021/12/16 08:03:38;;;;;;;18.35;12.90;;;11.50;99.90;;;11.14;84.81;103486.81;4994033;28;20105;-73
2021/12/16 08:06:13;;;;;;;15.88;11.85;;;11.50;99.90;;;11.78;84.28;103612.81;4992946;28;20046;-73
2021/12/16 08:08:42;;;;;;;18.02;13.45;;;11.50;99.90;;;11.83;84.84;103615.59;4993620;28;20034;-74
2021/12/16 08:11:10;;;;;;;21.38;14.70;;;11.60;99.90;;;11.91;85.76;103602.59;4993797;28;20068;-73
2021/12/16 08:13:39;;;;;;;21.20;15.07;;;11.60;99.90;;;11.95;86.24;103594.81;4992631;28;20046;-73
2021/12/16 08:16:08;;;;;;;22.10;15.95;;;11.70;99.90;;;12.16;86.82;103611.44;4993968;28;20065;-73
2021/12/16 08:18:37;;;;;;;23.13;15.60;;;11.90;99.90;;;12.35;86.69;103605.88;4992580;28;20056;-73
2021/12/16 08:21:07;;;;;;;23.05;15.85;;;12.10;99.90;;;12.61;86.11;103614.69;4993676;28;20046;-73
2021/12/16 08:23:37;;;;;;;24.13;15.93;;;12.30;99.90;;;12.84;85.50;103616.28;4993567;28;20046;-74
2021/12/16 08:26:05;;;;;;;21.73;14.93;;;12.60;99.90;;;13.05;84.45;103624.94;4993916;28;20096;-75
2021/12/16 08:28:34;;;;;;;17.63;14.15;;;12.90;99.90;;;13.25;83.50;103615.78;4996632;28;20333;-74
2021/12/16 08:31:05;;;;;;;19.10;14.93;;;13.10;99.90;;;13.20;82.45;103580.19;4995074;28;20081;-74
2021/12/16 08:33:34;;;;;;;17.98;13.48;;;13.30;99.90;;;13.72;81.64;103621.53;4996396;28;20046;-74
2021/12/16 08:36:04;;;;;;;18.73;13.50;;;13.60;99.90;;;13.95;80.52;103660.28;4994046;28;20081;-74
2021/12/16 08:38:33;;;;;;;15.70;11.25;;;13.80;99.90;;;14.05;78.57;103625.06;4993775;28;20404;-74
2021/12/16 08:41:10;;;;;;;16.88;12.30;;;14.00;99.90;;;14.40;77.83;103625.09;4992283;28;20050;-74
2021/12/16 08:43:40;;;;;;;14.90;12.48;;;14.30;99.90;;;14.75;77.12;103630.38;4993838;28;20121;-74
2021/12/16 08:46:12;;;;;;;15.85;12.00;;;14.60;99.90;;;14.99;75.59;103636.22;4993458;28;20039;-74
2021/12/16 08:48:42;;;;;;;18.95;11.82;;;14.90;99.90;;;15.01;74.07;103631.81;4993374;28;20066;-74
2021/12/16 08:51:12;;;;;;;16.83;11.73;;;15.00;99.90;;;15.38;73.92;103637.97;4993466;28;20042;-74
2021/12/16 08:53:41;;;;;;;16.75;12.30;;;15.20;99.90;;;15.66;73.19;103647.44;4993352;28;20282;-73
2021/12/16 08:56:12;;;;;;;16.10;12.25;;;15.50;99.90;;;15.84;72.26;103670.91;4993141;28;20058;-73
2021/12/16 08:58:41;;;;;;;12.90;10.60;;;15.70;99.90;;;15.75;70.89;103644.97;4993184;28;20046;-73
2021/12/16 09:01:18;;;;;;;14.90;10.60;;;15.70;99.90;;;16.12;71.08;103668.75;4993120;28;20039;-74
2021/12/16 09:03:47;;;;;;;14.00;11.55;;;16.00;99.90;;;16.36;70.41;103659.38;4993264;28;20043;-74
2021/12/16 09:06:16;;;;;;;13.48;10.80;;;16.20;99.90;;;16.57;69.95;103671.34;4993404;28;20125;-73
2021/12/16 09:08:45;;;;;;;13.93;10.60;;;16.40;99.90;;;16.75;68.95;103665.38;4993282;28;20054;-74
2021/12/16 09:11:22;;;;;;;15.63;11.20;;;16.60;99.90;;;16.91;68.21;103673.66;4991952;28;20050;-74
2021/12/16 09:13:59;;;;;;;14.93;10.68;;;16.80;99.90;;;16.90;67.36;103682.56;4993630;28;20042;-74
2021/12/16 09:16:32;;;;;;;10.90;9.85;;;16.80;99.90;;;16.98;67.58;103677.31;4993252;28;20050;-74
2021/12/16 09:19:02;;;;;;;13.95;10.27;;;16.80;99.90;;;17.27;67.21;103686.63;4996437;28;20078;-74
2021/12/16 09:21:35;;;;;;;12.63;9.52;;;17.00;99.90;;;17.42;67.56;103662.72;4997000;28;20066;-74
2021/12/16 09:24:07;;;;;;;15.27;10.95;;;17.30;99.90;;;17.68;66.15;103687.19;4996816;28;20118;-74
2021/12/16 09:26:37;;;;;;;11.73;10.07;;;17.50;99.90;;;17.92;65.90;103679.41;4997279;28;20046;-73
2021/12/16 09:29:05;;;;;;;14.63;11.07;;;17.70;99.90;;;18.21;65.96;103683.28;4997061;28;20059;-74
2021/12/16 09:31:35;;;;;;;14.57;11.57;;;18.00;99.90;;;18.45;64.88;103696.00;4996605;28;20121;-73
2021/12/16 09:34:08;;;;;;;17.50;12.45;;;18.30;99.90;;;18.56;63.39;103699.69;4997017;28;20050;-73
2021/12/16 09:36:41;;;;;;;19.48;13.18;;;18.40;99.90;;;18.79;62.63;103704.31;4996514;28;20043;-73
2021/12/16 09:39:16;;;;;;;16.80;12.63;;;18.60;99.90;;;18.96;62.95;103674.94;4996433;28;20050;-73
2021/12/16 09:41:49;;;;;;;20.42;13.80;;;18.90;99.90;;;19.33;62.07;103700.22;4996395;28;20047;-74
2021/12/16 09:44:18;;;;;;;15.77;12.52;;;19.20;99.90;;;19.42;61.33;103687.72;4996392;28;20412;-73
2021/12/16 09:46:50;;;;;;;17.10;12.48;;;19.40;99.90;;;19.61;60.61;103700.34;4995335;28;20069;-74
2021/12/16 09:49:21;;;;;;;20.75;12.98;;;19.60;99.90;;;19.79;59.83;103707.56;4996587;28;20038;-74
2021/12/16 09:51:52;;;;;;;16.88;12.90;;;19.70;99.90;;;19.92;59.69;103697.75;4996351;28;20104;-73
2021/12/16 09:54:27;;;;;;;18.98;12.70;;;19.90;99.90;;;20.07;59.23;103712.13;4996181;28;20480;-73
2021/12/16 09:56:59;;;;;;;19.13;12.05;;;20.00;99.90;;;20.21;58.25;103715.72;4996195;28;20042;-73
2021/12/16 09:59:31;;;;;;;14.98;11.32;;;20.10;99.90;;;20.18;58.33;103687.91;4996442;28;20046;-73
2021/12/16 10:02:05;;;;;;;16.33;12.52;;;20.20;99.90;;;20.42;57.84;103718.44;4996226;28;20122;-73
2021/12/16 10:04:34;;;;;;;16.17;11.65;;;20.30;99.90;;;20.51;57.57;103721.16;4995973;28;20069;-73
2021/12/16 10:07:10;;;;;;;13.57;11.23;;;20.50;99.90;;;20.66;57.81;103725.63;4995917;28;20046;-73
2021/12/16 10:09:40;;;;;;;16.10;11.63;;;20.60;99.90;;;20.73;57.68;103711.25;4995865;28;20057;-73
2021/12/16 10:12:14;;;;;;;14.40;11.18;;;20.70;99.90;;;20.90;57.41;103717.53;4995834;28;20492;-74
2021/12/16 10:15:03;;;;;;;14.70;10.80;;;20.80;99.90;;;20.86;56.74;103741.75;4995875;28;20042;-73
2021/12/16 10:17:38;;;;;;;14.48;10.77;;;20.80;99.90;;;20.96;57.21;103730.09;4995793;28;20045;-73
2021/12/16 10:20:16;;;;;;;20.27;11.20;;;20.80;99.90;;;21.07;57.26;103728.28;4978818;28;20054;-73
2021/12/16 10:22:47;;;;;;;17.40;11.77;;;21.00;99.90;;;21.20;56.66;103740.81;4995608;28;20511;-73
2021/12/16 10:25:25;;;;;;;20.73;11.57;;;21.10;99.90;;;21.15;56.37;103721.09;4978379;28;20054;-73
2021/12/16 10:28:05;;;;;;;17.17;11.38;;;21.20;99.90;;;21.31;56.23;103741.72;4995706;28;20077;-73
2021/12/16 10:30:49;;;;;;;13.50;10.50;;;21.30;99.90;;;21.19;55.91;103712.13;4995286;28;20096;-73
2021/12/16 10:33:25;;;;;;;13.80;11.38;;;21.30;99.90;;;21.15;56.46;103715.72;4995458;28;20059;-74
2021/12/16 10:36:14;;;;;;;15.35;11.13;;;21.30;99.90;;;21.49;56.74;103755.09;4995373;28;20065;-74
2021/12/16 10:38:47;;;;;;;15.40;10.48;;;21.40;99.90;;;21.32;56.40;103698.59;4995377;28;20046;-74
2021/12/16 10:41:21;;;;;;;17.88;10.90;;;21.50;99.90;;;21.62;56.51;103745.19;4995234;28;20057;-74
2021/12/16 10:43:55;;;;;;;16.42;10.38;;;21.60;99.90;;;21.28;54.87;103742.59;4995400;28;20049;-74
2021/12/16 10:46:28;;;;;;;16.30;10.02;;;21.40;99.90;;;21.00;54.83;103756.97;4995259;28;20038;-74
2021/12/16 10:49:03;;;;;;;15.57;9.57;;;20.90;99.90;;;20.83;55.30;103744.47;4995029;28;20085;-74
2021/12/16 10:51:34;;;;;;;15.55;9.77;;;20.70;99.90;;;20.78;55.54;103747.16;4995404;28;20057;-73
2021/12/16 10:54:19;;;;;;;16.27;9.45;;;20.50;99.90;;;20.45;55.65;103728.31;4995037;28;20122;-73
2021/12/16 10:57:04;;;;;;;16.73;9.55;;;20.30;99.90;;;20.40;56.26;103733.69;4995288;28;20050;-73
2021/12/16 10:59:39;;;;;;;14.25;8.95;;;20.10;99.90;;;20.16;56.12;103739.00;4994942;28;20054;-74
2021/12/16 11:02:14;;;;;;;12.73;8.55;;;19.90;99.90;;;20.07;57.06;103733.63;4994873;28;20046;-73
2021/12/16 11:04:50;;;;;;;16.50;10.45;;;19.80;99.90;;;19.71;57.23;103738.88;4994977;28;20094;-74
2021/12/16 11:07:27;;;;;;;15.88;10.45;;;19.50;99.90;;;19.38;57.98;103733.34;4994845;28;20046;-73
2021/12/16 11:10:10;;;;;;;15.93;9.63;;;19.20;99.90;;;19.30;58.41;103746.69;4994696;28;20046;-73
2021/12/16 11:12:50;;;;;;;16.45;10.07;;;19.00;99.90;;;18.92;59.02;103738.41;4994598;28;20046;-74
2021/12/16 11:15:24;;;;;;;;;;;18.60;99.90;;;18.81;59.63;103710.59;4995018;28;20104;-74
2021/12/16 11:18:02;;;;;;;17.92;9.80;;;18.60;99.90;;;16.94;58.97;103419.63;4994710;28;19929;-73
2021/12/16 11:20:37;;;;;;;16.55;10.25;;;18.40;99.90;;;18.59;60.41;103734.56;4977397;28;20070;-73
2021/12/16 11:23:12;;;;;;;20.65;10.75;;;18.30;99.90;;;18.20;60.62;103708.28;4994420;28;20054;-74
2021/12/16 11:25:43;;;;;;;20.55;10.75;;;18.10;99.90;;;17.96;61.34;103724.13;4994383;28;20058;-73
2021/12/16 11:28:18;;;;;;;18.27;9.30;;;17.80;99.90;;;17.78;62.17;103723.91;4994156;28;20058;-73
2021/12/16 11:30:58;;;;;;;15.32;9.80;;;17.60;99.90;;;17.85;62.88;103726.66;4994395;28;20069;-73
2021/12/16 11:33:34;;;;;;;15.40;9.55;;;17.60;99.90;;;17.86;63.10;103735.59;4994629;28;20061;-73
2021/12/16 11:36:10;;;;;;;16.38;9.95;;;17.60;99.90;;;17.93;63.61;103726.75;4994271;28;20039;-73
2021/12/16 11:38:44;;;;;;;18.98;10.18;;;17.60;99.90;;;17.73;62.42;103717.59;4994483;28;20038;-73
2021/12/16 11:41:28;;;;;;;18.50;10.45;;;17.50;99.90;;;17.57;63.23;103731.66;4994638;28;20042;-74
2021/12/16 11:44:03;;;;;;;14.20;9.40;;;17.40;99.90;;;17.27;64.09;103720.50;4994241;28;20069;-74
2021/12/16 11:46:38;;;;;;;18.15;10.43;;;17.10;99.90;;;17.09;64.86;103715.84;4976702;28;20054;-74
2021/12/16 11:49:22;;;;;;;17.08;9.60;;;16.80;99.90;;;16.93;65.77;103720.06;4976734;28;20404;-73
2021/12/16 11:51:59;;;;;;;20.02;10.43;;;16.70;99.90;;;17.11;65.13;103717.63;4993985;28;20572;-73
2021/12/16 11:54:34;;;;;;;19.60;10.65;;;16.80;99.90;;;15.22;65.13;103362.94;4993944;28;20052;-73
2021/12/16 11:57:12;;;;;;;17.25;10.38;;;16.80;99.90;;;16.97;65.26;103700.50;4976729;28;20539;-73
2021/12/16 11:59:45;;;;;;;16.50;10.30;;;16.80;99.90;;;15.13;65.57;103361.03;4993899;28;20046;-73
2021/12/16 12:02:27;;;;;;;18.13;9.63;;;16.80;99.90;;;17.23;65.66;103718.69;4992908;28;20046;-73
2021/12/16 12:05:17;;;;;;;18.83;10.60;;;16.90;99.90;;;17.24;64.86;103712.44;4993810;28;20042;-73
2021/12/16 12:07:50;;;;;;;18.27;9.73;;;17.00;99.90;;;17.14;64.84;103693.63;4993727;28;20039;-74